sensor_id;sensor_type;location;lat;lon;timestamp;temperature;humidity
53645;DHT22;39547;45.554;12.068;2023-04-24T00:03:36;15.80;76.50
53645;DHT22;39547;45.554;12.068;2023-04-24T00:09:38;15.80;76.20
53645;DHT22;39547;45.554;12.068;2023-04-24T00:15:39;15.80;76.30
53645;DHT22;39547;45.554;12.068;2023-04-24T00:21:41;15.70;76.10
53645;DHT22;39547;45.554;12.068;2023-04-24T00:27:42;15.70;75.90
53645;DHT22;39547;45.554;12.068;2023-04-24T00:33:44;15.70;76.00
53645;DHT22;39547;45.554;12.068;2023-04-24T00:39:45;15.60;75.90
53645;DHT22;39547;45.554;12.068;2023-04-24T00:45:47;15.60;75.90
53645;DHT22;39547;45.554;12.068;2023-04-24T00:51:49;15.60;75.80
53645;DHT22;39547;45.554;12.068;2023-04-24T00:57:52;15.60;75.80
53645;DHT22;39547;45.554;12.068;2023-04-24T01:03:54;15.60;75.80
53645;DHT22;39547;45.554;12.068;2023-04-24T01:09:56;15.60;75.90
53645;DHT22;39547;45.554;12.068;2023-04-24T01:16:00;15.60;76.00
53645;DHT22;39547;45.554;12.068;2023-04-24T01:22:02;15.60;75.90
53645;DHT22;39547;45.554;12.068;2023-04-24T01:28:04;15.70;76.00
53645;DHT22;39547;45.554;12.068;2023-04-24T01:34:06;15.70;76.10
53645;DHT22;39547;45.554;12.068;2023-04-24T01:40:09;15.70;76.10
53645;DHT22;39547;45.554;12.068;2023-04-24T01:46:11;15.60;76.10
53645;DHT22;39547;45.554;12.068;2023-04-24T01:52:12;15.60;76.10
53645;DHT22;39547;45.554;12.068;2023-04-24T01:58:14;15.50;76.50
53645;DHT22;39547;45.554;12.068;2023-04-24T02:04:15;15.50;76.40
53645;DHT22;39547;45.554;12.068;2023-04-24T02:10:17;15.50;76.60
53645;DHT22;39547;45.554;12.068;2023-04-24T02:16:19;15.50;76.60
53645;DHT22;39547;45.554;12.068;2023-04-24T02:22:20;15.50;76.70
53645;DHT22;39547;45.554;12.068;2023-04-24T02:28:21;15.50;76.40
53645;DHT22;39547;45.554;12.068;2023-04-24T02:34:25;15.50;76.40
53645;DHT22;39547;45.554;12.068;2023-04-24T02:40:27;15.50;76.30
53645;DHT22;39547;45.554;12.068;2023-04-24T02:46:28;15.50;76.20
53645;DHT22;39547;45.554;12.068;2023-04-24T02:52:30;15.50;76.20
53645;DHT22;39547;45.554;12.068;2023-04-24T02:58:31;15.50;76.20
53645;DHT22;39547;45.554;12.068;2023-04-24T03:04:33;15.40;76.40
53645;DHT22;39547;45.554;12.068;2023-04-24T03:10:34;15.50;76.00
53645;DHT22;39547;45.554;12.068;2023-04-24T03:16:36;15.40;75.90
53645;DHT22;39547;45.554;12.068;2023-04-24T03:22:37;15.40;75.80
53645;DHT22;39547;45.554;12.068;2023-04-24T03:28:42;15.40;75.70
53645;DHT22;39547;45.554;12.068;2023-04-24T03:34:44;15.40;75.60
53645;DHT22;39547;45.554;12.068;2023-04-24T03:40:48;15.40;75.70
53645;DHT22;39547;45.554;12.068;2023-04-24T03:47:07;15.40;75.60
53645;DHT22;39547;45.554;12.068;2023-04-24T03:53:12;15.40;75.50
53645;DHT22;39547;45.554;12.068;2023-04-24T03:59:16;15.40;75.40
53645;DHT22;39547;45.554;12.068;2023-04-24T04:05:21;15.40;75.40
53645;DHT22;39547;45.554;12.068;2023-04-24T04:11:23;15.50;75.40
53645;DHT22;39547;45.554;12.068;2023-04-24T04:17:25;15.50;75.30
53645;DHT22;39547;45.554;12.068;2023-04-24T04:23:27;15.50;75.30
53645;DHT22;39547;45.554;12.068;2023-04-24T04:29:44;15.50;75.40
53645;DHT22;39547;45.554;12.068;2023-04-24T04:35:48;15.40;75.90
53645;DHT22;39547;45.554;12.068;2023-04-24T04:41:59;15.30;76.30
53645;DHT22;39547;45.554;12.068;2023-04-24T04:48:07;15.20;77.20
53645;DHT22;39547;45.554;12.068;2023-04-24T04:54:11;15.20;77.30
53645;DHT22;39547;45.554;12.068;2023-04-24T05:00:13;15.10;77.80
53645;DHT22;39547;45.554;12.068;2023-04-24T05:06:22;15.10;78.40
53645;DHT22;39547;45.554;12.068;2023-04-24T05:12:24;14.80;78.90
53645;DHT22;39547;45.554;12.068;2023-04-24T05:18:27;14.70;79.70
53645;DHT22;39547;45.554;12.068;2023-04-24T05:24:29;14.70;80.30
53645;DHT22;39547;45.554;12.068;2023-04-24T05:30:55;14.70;80.30
53645;DHT22;39547;45.554;12.068;2023-04-24T05:36:59;14.60;80.60
53645;DHT22;39547;45.554;12.068;2023-04-24T05:43:01;14.60;80.90
53645;DHT22;39547;45.554;12.068;2023-04-24T05:49:02;14.60;81.20
53645;DHT22;39547;45.554;12.068;2023-04-24T05:55:06;14.60;81.40
53645;DHT22;39547;45.554;12.068;2023-04-24T06:01:10;14.60;81.50
53645;DHT22;39547;45.554;12.068;2023-04-24T06:07:12;14.60;81.90
53645;DHT22;39547;45.554;12.068;2023-04-24T06:13:15;14.70;82.20
53645;DHT22;39547;45.554;12.068;2023-04-24T06:19:27;14.70;82.40
53645;DHT22;39547;45.554;12.068;2023-04-24T06:25:30;14.80;82.70
53645;DHT22;39547;45.554;12.068;2023-04-24T06:31:31;14.70;82.80
53645;DHT22;39547;45.554;12.068;2023-04-24T06:37:39;14.80;83.10
53645;DHT22;39547;45.554;12.068;2023-04-24T06:43:41;14.80;83.10
53645;DHT22;39547;45.554;12.068;2023-04-24T06:49:43;14.80;83.30
53645;DHT22;39547;45.554;12.068;2023-04-24T06:55:44;14.90;83.50
53645;DHT22;39547;45.554;12.068;2023-04-24T07:01:47;15.10;83.60
53645;DHT22;39547;45.554;12.068;2023-04-24T07:07:49;15.20;83.60
53645;DHT22;39547;45.554;12.068;2023-04-24T07:13:51;15.20;83.60
53645;DHT22;39547;45.554;12.068;2023-04-24T07:19:53;15.10;83.60
53645;DHT22;39547;45.554;12.068;2023-04-24T07:25:54;15.10;83.70
53645;DHT22;39547;45.554;12.068;2023-04-24T07:31:55;15.10;83.80
53645;DHT22;39547;45.554;12.068;2023-04-24T07:37:57;15.00;84.00
53645;DHT22;39547;45.554;12.068;2023-04-24T07:43:59;15.00;84.10
53645;DHT22;39547;45.554;12.068;2023-04-24T07:50:00;14.70;87.40
53645;DHT22;39547;45.554;12.068;2023-04-24T07:56:02;14.50;86.90
53645;DHT22;39547;45.554;12.068;2023-04-24T08:02:03;14.30;87.60
53645;DHT22;39547;45.554;12.068;2023-04-24T08:08:04;14.30;87.80
53645;DHT22;39547;45.554;12.068;2023-04-24T08:14:06;14.30;87.90
53645;DHT22;39547;45.554;12.068;2023-04-24T08:20:09;14.40;87.60
53645;DHT22;39547;45.554;12.068;2023-04-24T08:26:14;14.30;87.20
53645;DHT22;39547;45.554;12.068;2023-04-24T08:32:17;14.40;87.10
53645;DHT22;39547;45.554;12.068;2023-04-24T08:38:18;14.60;86.90
53645;DHT22;39547;45.554;12.068;2023-04-24T08:44:20;14.70;86.80
53645;DHT22;39547;45.554;12.068;2023-04-24T08:50:22;14.80;86.60
53645;DHT22;39547;45.554;12.068;2023-04-24T08:56:24;15.00;86.10
53645;DHT22;39547;45.554;12.068;2023-04-24T09:02:26;15.20;85.80
53645;DHT22;39547;45.554;12.068;2023-04-24T09:08:28;15.30;85.00
53645;DHT22;39547;45.554;12.068;2023-04-24T09:14:31;15.40;84.10
53645;DHT22;39547;45.554;12.068;2023-04-24T09:20:33;15.40;82.50
53645;DHT22;39547;45.554;12.068;2023-04-24T09:26:37;15.30;83.10
53645;DHT22;39547;45.554;12.068;2023-04-24T09:32:38;15.30;83.00
53645;DHT22;39547;45.554;12.068;2023-04-24T09:38:40;15.40;82.90
53645;DHT22;39547;45.554;12.068;2023-04-24T09:44:41;15.50;82.40
53645;DHT22;39547;45.554;12.068;2023-04-24T09:50:46;15.70;80.60
53645;DHT22;39547;45.554;12.068;2023-04-24T09:56:49;16.10;78.70
53645;DHT22;39547;45.554;12.068;2023-04-24T10:03:02;16.60;80.00
53645;DHT22;39547;45.554;12.068;2023-04-24T10:09:03;17.00;77.80
53645;DHT22;39547;45.554;12.068;2023-04-24T10:15:05;16.90;76.30
53645;DHT22;39547;45.554;12.068;2023-04-24T10:21:07;16.50;77.70
53645;DHT22;39547;45.554;12.068;2023-04-24T10:27:09;16.20;78.50
53645;DHT22;39547;45.554;12.068;2023-04-24T10:33:11;16.00;78.40
53645;DHT22;39547;45.554;12.068;2023-04-24T10:39:14;16.00;78.60
53645;DHT22;39547;45.554;12.068;2023-04-24T10:45:18;15.90;78.80
53645;DHT22;39547;45.554;12.068;2023-04-24T10:51:23;15.90;78.50
53645;DHT22;39547;45.554;12.068;2023-04-24T10:57:28;15.90;78.80
53645;DHT22;39547;45.554;12.068;2023-04-24T11:03:33;16.20;79.10
53645;DHT22;39547;45.554;12.068;2023-04-24T11:09:35;16.40;79.10
53645;DHT22;39547;45.554;12.068;2023-04-24T11:15:37;16.80;78.10
53645;DHT22;39547;45.554;12.068;2023-04-24T11:21:46;17.20;78.10
53645;DHT22;39547;45.554;12.068;2023-04-24T11:27:48;17.30;77.40
53645;DHT22;39547;45.554;12.068;2023-04-24T11:33:51;17.50;76.80
53645;DHT22;39547;45.554;12.068;2023-04-24T11:39:55;17.40;76.90
53645;DHT22;39547;45.554;12.068;2023-04-24T11:45:59;17.60;77.50
53645;DHT22;39547;45.554;12.068;2023-04-24T11:52:01;18.00;76.30
53645;DHT22;39547;45.554;12.068;2023-04-24T11:58:02;18.50;75.90
53645;DHT22;39547;45.554;12.068;2023-04-24T12:04:04;18.80;74.70
53645;DHT22;39547;45.554;12.068;2023-04-24T12:10:05;19.00;74.00
53645;DHT22;39547;45.554;12.068;2023-04-24T12:16:07;19.30;73.50
53645;DHT22;39547;45.554;12.068;2023-04-24T12:22:08;19.70;72.00
53645;DHT22;39547;45.554;12.068;2023-04-24T12:28:12;19.90;70.40
53645;DHT22;39547;45.554;12.068;2023-04-24T12:34:24;20.20;69.60
53645;DHT22;39547;45.554;12.068;2023-04-24T12:40:26;20.30;68.50
53645;DHT22;39547;45.554;12.068;2023-04-24T12:46:29;20.40;67.10
53645;DHT22;39547;45.554;12.068;2023-04-24T12:52:30;20.40;66.00
53645;DHT22;39547;45.554;12.068;2023-04-24T12:58:32;20.50;65.50
53645;DHT22;39547;45.554;12.068;2023-04-24T13:04:33;20.40;65.30
53645;DHT22;39547;45.554;12.068;2023-04-24T13:10:35;20.70;65.50
53645;DHT22;39547;45.554;12.068;2023-04-24T13:16:36;21.00;63.70
53645;DHT22;39547;45.554;12.068;2023-04-24T13:22:38;21.30;61.90
53645;DHT22;39547;45.554;12.068;2023-04-24T13:28:39;21.50;61.30
53645;DHT22;39547;45.554;12.068;2023-04-24T13:34:41;22.10;59.50
53645;DHT22;39547;45.554;12.068;2023-04-24T13:40:42;22.60;58.50
53645;DHT22;39547;45.554;12.068;2023-04-24T13:46:45;23.30;56.70
53645;DHT22;39547;45.554;12.068;2023-04-24T13:52:46;23.90;54.80
53645;DHT22;39547;45.554;12.068;2023-04-24T13:58:48;24.50;53.10
53645;DHT22;39547;45.554;12.068;2023-04-24T14:04:49;25.50;51.20
53645;DHT22;39547;45.554;12.068;2023-04-24T14:10:51;26.30;48.50
53645;DHT22;39547;45.554;12.068;2023-04-24T14:16:52;27.00;45.20
53645;DHT22;39547;45.554;12.068;2023-04-24T14:22:54;28.00;44.20
53645;DHT22;39547;45.554;12.068;2023-04-24T14:28:55;28.90;41.80
53645;DHT22;39547;45.554;12.068;2023-04-24T14:34:59;29.70;40.00
53645;DHT22;39547;45.554;12.068;2023-04-24T14:41:01;30.40;38.10
53645;DHT22;39547;45.554;12.068;2023-04-24T14:47:02;30.60;36.80
53645;DHT22;39547;45.554;12.068;2023-04-24T14:53:04;30.90;36.10
53645;DHT22;39547;45.554;12.068;2023-04-24T14:59:06;30.90;35.50
53645;DHT22;39547;45.554;12.068;2023-04-24T15:05:08;31.10;34.20
53645;DHT22;39547;45.554;12.068;2023-04-24T15:11:10;29.90;34.90
53645;DHT22;39547;45.554;12.068;2023-04-24T15:17:11;27.80;37.10
53645;DHT22;39547;45.554;12.068;2023-04-24T15:23:13;27.70;37.30
53645;DHT22;39547;45.554;12.068;2023-04-24T15:29:14;26.10;38.20
53645;DHT22;39547;45.554;12.068;2023-04-24T15:35:16;23.90;41.30
53645;DHT22;39547;45.554;12.068;2023-04-24T15:41:18;22.50;44.50
53645;DHT22;39547;45.554;12.068;2023-04-24T15:47:20;21.50;46.60
53645;DHT22;39547;45.554;12.068;2023-04-24T15:53:21;20.90;48.20
53645;DHT22;39547;45.554;12.068;2023-04-24T15:59:23;20.90;48.40
53645;DHT22;39547;45.554;12.068;2023-04-24T16:05:24;21.80;47.50
53645;DHT22;39547;45.554;12.068;2023-04-24T16:11:26;21.40;48.70
53645;DHT22;39547;45.554;12.068;2023-04-24T16:17:27;20.80;49.60
53645;DHT22;39547;45.554;12.068;2023-04-24T16:23:29;20.00;51.10
53645;DHT22;39547;45.554;12.068;2023-04-24T16:29:30;19.50;52.20
53645;DHT22;39547;45.554;12.068;2023-04-24T16:35:32;19.00;53.40
53645;DHT22;39547;45.554;12.068;2023-04-24T16:41:34;18.70;54.30
53645;DHT22;39547;45.554;12.068;2023-04-24T16:47:35;18.50;55.10
53645;DHT22;39547;45.554;12.068;2023-04-24T16:53:37;18.30;55.50
53645;DHT22;39547;45.554;12.068;2023-04-24T16:59:38;18.20;55.90
53645;DHT22;39547;45.554;12.068;2023-04-24T17:05:40;18.10;56.20
53645;DHT22;39547;45.554;12.068;2023-04-24T17:11:41;17.90;56.70
53645;DHT22;39547;45.554;12.068;2023-04-24T17:17:43;17.80;57.00
53645;DHT22;39547;45.554;12.068;2023-04-24T17:23:46;17.70;57.20
53645;DHT22;39547;45.554;12.068;2023-04-24T17:29:47;17.70;57.40
53645;DHT22;39547;45.554;12.068;2023-04-24T17:35:50;17.50;57.80
53645;DHT22;39547;45.554;12.068;2023-04-24T17:41:51;17.50;58.30
53645;DHT22;39547;45.554;12.068;2023-04-24T17:47:52;17.40;59.10
53645;DHT22;39547;45.554;12.068;2023-04-24T17:53:55;17.30;59.30
53645;DHT22;39547;45.554;12.068;2023-04-24T17:59:57;17.20;59.40
53645;DHT22;39547;45.554;12.068;2023-04-24T18:05:58;17.10;59.50
53645;DHT22;39547;45.554;12.068;2023-04-24T18:12:00;17.00;59.80
53645;DHT22;39547;45.554;12.068;2023-04-24T18:18:02;16.90;60.20
53645;DHT22;39547;45.554;12.068;2023-04-24T18:24:04;16.80;60.30
53645;DHT22;39547;45.554;12.068;2023-04-24T18:30:08;16.70;60.80
53645;DHT22;39547;45.554;12.068;2023-04-24T18:36:09;16.50;61.10
53645;DHT22;39547;45.554;12.068;2023-04-24T18:42:11;16.40;61.60
53645;DHT22;39547;45.554;12.068;2023-04-24T18:48:12;16.30;61.80
53645;DHT22;39547;45.554;12.068;2023-04-24T18:54:14;16.30;62.00
53645;DHT22;39547;45.554;12.068;2023-04-24T19:00:15;16.20;62.40
53645;DHT22;39547;45.554;12.068;2023-04-24T19:06:18;16.10;62.70
53645;DHT22;39547;45.554;12.068;2023-04-24T19:12:20;16.00;63.00
53645;DHT22;39547;45.554;12.068;2023-04-24T19:18:21;15.90;63.50
53645;DHT22;39547;45.554;12.068;2023-04-24T19:24:23;15.80;64.20
53645;DHT22;39547;45.554;12.068;2023-04-24T19:30:26;15.70;64.90
53645;DHT22;39547;45.554;12.068;2023-04-24T19:36:29;15.60;65.40
53645;DHT22;39547;45.554;12.068;2023-04-24T19:42:31;15.40;65.90
53645;DHT22;39547;45.554;12.068;2023-04-24T19:48:32;15.30;66.20
53645;DHT22;39547;45.554;12.068;2023-04-24T19:54:34;15.20;66.70
53645;DHT22;39547;45.554;12.068;2023-04-24T20:00:35;15.10;66.90
53645;DHT22;39547;45.554;12.068;2023-04-24T20:06:38;14.90;67.10
53645;DHT22;39547;45.554;12.068;2023-04-24T20:12:39;14.90;67.10
53645;DHT22;39547;45.554;12.068;2023-04-24T20:18:41;14.80;67.50
53645;DHT22;39547;45.554;12.068;2023-04-24T20:24:43;14.80;67.90
53645;DHT22;39547;45.554;12.068;2023-04-24T20:30:44;14.80;68.10
53645;DHT22;39547;45.554;12.068;2023-04-24T20:36:46;14.80;68.20
53645;DHT22;39547;45.554;12.068;2023-04-24T20:42:47;14.80;68.50
53645;DHT22;39547;45.554;12.068;2023-04-24T20:48:50;14.90;68.90
53645;DHT22;39547;45.554;12.068;2023-04-24T20:54:51;14.90;69.30
53645;DHT22;39547;45.554;12.068;2023-04-24T21:00:53;15.00;69.30
53645;DHT22;39547;45.554;12.068;2023-04-24T21:06:54;15.00;69.60
53645;DHT22;39547;45.554;12.068;2023-04-24T21:12:55;15.10;69.50
53645;DHT22;39547;45.554;12.068;2023-04-24T21:18:57;15.10;69.40
53645;DHT22;39547;45.554;12.068;2023-04-24T21:24:58;15.10;69.50
53645;DHT22;39547;45.554;12.068;2023-04-24T21:31:00;15.00;70.00
53645;DHT22;39547;45.554;12.068;2023-04-24T21:37:01;14.80;70.40
53645;DHT22;39547;45.554;12.068;2023-04-24T21:43:03;14.70;70.70
53645;DHT22;39547;45.554;12.068;2023-04-24T21:49:04;14.50;71.10
53645;DHT22;39547;45.554;12.068;2023-04-24T21:55:06;14.30;71.40
53645;DHT22;39547;45.554;12.068;2023-04-24T22:01:08;14.20;71.70
53645;DHT22;39547;45.554;12.068;2023-04-24T22:07:09;14.10;72.00
53645;DHT22;39547;45.554;12.068;2023-04-24T22:13:11;14.00;73.00
53645;DHT22;39547;45.554;12.068;2023-04-24T22:19:13;14.00;73.20
53645;DHT22;39547;45.554;12.068;2023-04-24T22:25:16;13.90;73.60
53645;DHT22;39547;45.554;12.068;2023-04-24T22:31:18;13.90;73.90
53645;DHT22;39547;45.554;12.068;2023-04-24T22:37:19;13.90;74.10
53645;DHT22;39547;45.554;12.068;2023-04-24T22:43:21;13.80;74.10
53645;DHT22;39547;45.554;12.068;2023-04-24T22:49:23;13.80;74.00
53645;DHT22;39547;45.554;12.068;2023-04-24T22:55:27;13.70;74.20
53645;DHT22;39547;45.554;12.068;2023-04-24T23:01:29;13.70;74.20
53645;DHT22;39547;45.554;12.068;2023-04-24T23:07:30;13.60;75.10
53645;DHT22;39547;45.554;12.068;2023-04-24T23:13:32;13.60;74.80
53645;DHT22;39547;45.554;12.068;2023-04-24T23:19:33;13.60;74.90
53645;DHT22;39547;45.554;12.068;2023-04-24T23:25:35;13.50;75.10
53645;DHT22;39547;45.554;12.068;2023-04-24T23:31:36;13.50;75.30
53645;DHT22;39547;45.554;12.068;2023-04-24T23:37:38;13.50;75.30
53645;DHT22;39547;45.554;12.068;2023-04-24T23:43:39;13.50;75.60
53645;DHT22;39547;45.554;12.068;2023-04-24T23:49:41;13.50;75.80
53645;DHT22;39547;45.554;12.068;2023-04-24T23:55:42;13.50;76.20
